KMGC

Michigan City Municipal-Phillips Field Airport

Michigan City, Indiana, USA
METAR KMGC 232315Z AUTO 31009G14KT 10SM OVC017 M01/M03 A3004 RMK AO2
Observed Flight Rules
Jan-23 @ 23:15 UTC (28 minutes ago) Marginal Visual Flight Rules
Wind Visibility Clouds
310° at 9 knots
 Gusting to 14 knots
10 miles
  • Overcast at 1,700' AGL
Temperatures Readings
Current -1°C / 30°F
Dewpoint -3°C / 27°F
Humidity 86%
Altimeter 30.04" Hg
Pressure 1017 hPa
Elevation 200
METAR KMGC 232315Z AUTO 31009G14KT 10SM OVC017 M01/M03 A3004 RMK AO2
Observed Flight Rules
Jan-23 @ 23:15 UTC
(28 minutes ago)
MVFR
Wind Visibility
310° at 9 knots
 Gusting to 14 knots
10 miles
Clouds
  • Overcast at 1,700' AGL
Temperature Dewpoint
-1°C / 30°F -3°C / 27°F
Humidity Altimeter Pressure
86% 30.04" Hg 1017 hPa